Time;durP1;ratioP1;P1;durP2;ratioP2;P2;SDS_P1;SDS_P2;PMS_P1;PMS_P2;Temp;Humidity;BMP_temperature;BMP_pressure;BME280_temperature;BME280_humidity;BME280_pressure;Samples;Min_cycle;Max_cycle;Signal;HPM_P1;HPM_P2
2023/02/12 00:02:19;;;;;;;30.08;17.80;;;;;;;2.46;100.00;99196.28;5057225;28;20451;-59
2023/02/12 00:04:46;;;;;;;32.45;17.85;;;;;;;2.46;100.00;99199.81;5055372;28;20045;-60
2023/02/12 00:07:13;;;;;;;33.75;17.25;;;;;;;2.47;100.00;99195.31;5059330;28;20123;-60
2023/02/12 00:09:39;;;;;;;26.33;16.02;;;;;;;2.44;100.00;99196.44;5054621;28;20048;-59
2023/02/12 00:12:06;;;;;;;33.53;16.45;;;;;;;2.45;100.00;99186.59;5057672;28;20040;-57
2023/02/12 00:14:33;;;;;;;26.58;16.17;;;;;;;2.40;100.00;99196.91;5050244;28;20085;-59
2023/02/12 00:17:00;;;;;;;29.30;17.15;;;;;;;2.40;100.00;99197.75;5051583;28;20043;-58
2023/02/12 00:19:26;;;;;;;34.53;17.83;;;;;;;2.49;100.00;99197.81;5060120;28;20068;-60
2023/02/12 00:21:52;;;;;;;27.95;16.70;;;;;;;2.58;100.00;99192.38;5057409;28;20071;-59
2023/02/12 00:24:19;;;;;;;24.35;15.07;;;;;;;2.58;100.00;99197.72;5058323;28;20072;-55
2023/02/12 00:26:47;;;;;;;28.35;16.58;;;;;;;2.64;100.00;99206.97;5058046;28;20430;-57
2023/02/12 00:29:14;;;;;;;28.27;16.17;;;;;;;2.64;100.00;99208.81;5059495;28;20051;-57
2023/02/12 00:31:41;;;;;;;26.38;14.82;;;;;;;2.64;100.00;99201.63;5060019;28;20082;-56
2023/02/12 00:34:09;;;;;;;27.92;15.80;;;;;;;2.45;100.00;99210.66;5061845;28;20045;-58
2023/02/12 00:36:35;;;;;;;26.48;15.90;;;;;;;2.46;100.00;99205.16;5058644;28;20047;-58
2023/02/12 00:39:03;;;;;;;24.80;15.27;;;;;;;2.49;100.00;99211.19;5065279;28;20048;-58
2023/02/12 00:41:30;;;;;;;29.63;15.77;;;;;;;2.45;100.00;99205.31;5067848;28;20127;-58
2023/02/12 00:43:56;;;;;;;31.42;17.00;;;;;;;2.39;100.00;99206.75;5063153;28;20043;-60
2023/02/12 00:46:23;;;;;;;28.25;16.45;;;;;;;2.37;100.00;99214.13;5063426;28;20044;-59
2023/02/12 00:48:50;;;;;;;28.40;16.27;;;;;;;2.35;100.00;99216.09;5066886;28;20040;-59
2023/02/12 00:51:18;;;;;;;31.42;16.63;;;;;;;2.33;100.00;99218.09;5059675;28;20045;-57
2023/02/12 00:53:45;;;;;;;28.83;16.90;;;;;;;2.31;100.00;99220.06;5065926;28;20094;-58
2023/02/12 00:56:12;;;;;;;30.10;16.52;;;;;;;2.39;100.00;99227.34;5063775;28;20055;-57
2023/02/12 00:58:38;;;;;;;28.67;17.00;;;;;;;2.41;100.00;99222.66;5067017;28;20041;-58
2023/02/12 01:01:05;;;;;;;25.00;15.10;;;;;;;2.40;100.00;99223.66;5062591;28;20106;-54
2023/02/12 01:03:32;;;;;;;28.13;16.48;;;;;;;2.47;100.00;99220.22;5069814;28;20032;-55
2023/02/12 01:05:58;;;;;;;28.45;16.98;;;;;;;2.42;100.00;99217.16;5060446;28;20077;-56
2023/02/12 01:08:25;;;;;;;28.17;16.33;;;;;;;2.32;100.00;99217.22;5057799;28;20044;-57
2023/02/12 01:10:58;;;;;;;31.23;16.90;;;;;;;2.23;100.00;99223.50;5059157;28;20124;-60
2023/02/12 01:13:25;;;;;;;28.35;16.77;;;;;;;2.21;100.00;99214.78;5063284;28;20045;-58
2023/02/12 01:16:11;;;;;;;27.67;16.35;;;;;;;2.20;100.00;99215.78;5057288;28;20041;-58
2023/02/12 01:18:38;;;;;;;29.33;16.55;;;;;;;2.22;100.00;99216.47;5064449;28;20043;-60
2023/02/12 01:21:17;;;;;;;31.48;16.75;;;;;;;2.20;100.00;99221.13;5066098;28;20055;-59
2023/02/12 01:23:44;;;;;;;28.02;15.93;;;;;;;2.23;100.00;99223.50;5063705;28;20060;-59
2023/02/12 01:26:12;;;;;;;29.02;16.98;;;;;;;2.18;100.00;99215.09;5064563;28;20039;-59
2023/02/12 01:28:40;;;;;;;30.38;16.23;;;;;;;2.23;100.00;99217.31;5064191;28;20684;-59
2023/02/12 01:31:12;;;;;;;28.30;17.25;;;;;;;2.24;100.00;99216.34;5060678;28;20419;-59
2023/02/12 01:33:39;;;;;;;;;;;;;;;2.26;100.00;99219.69;5061492;28;20040;-58
2023/02/12 01:36:07;;;;;;;29.80;15.48;;;;;;;2.35;100.00;99226.78;5053058;28;19924;-58
2023/02/12 01:38:34;;;;;;;26.42;15.10;;;;;;;2.38;100.00;99220.28;5063094;28;20036;-59
2023/02/12 01:41:02;;;;;;;29.55;16.17;;;;;;;2.34;100.00;99228.63;5060807;28;20831;-60
2023/02/12 01:43:31;;;;;;;30.92;16.02;;;;;;;2.39;100.00;99222.81;5053823;28;20401;-59
2023/02/12 01:45:59;;;;;;;28.90;15.15;;;;;;;2.43;100.00;99216.16;5063067;28;20044;-59
2023/02/12 01:48:29;;;;;;;30.02;15.48;;;;;;;2.37;100.00;99208.78;5058834;28;20446;-60
2023/02/12 01:50:56;;;;;;;24.85;14.25;;;;;;;2.46;100.00;99210.50;5060009;28;20561;-60
2023/02/12 01:53:27;;;;;;;29.70;17.02;;;;;;;2.40;100.00;99211.09;5058262;28;20094;-56
2023/02/12 01:55:59;;;;;;;27.55;16.50;;;;;;;2.36;100.00;99219.59;5057195;28;20094;-55
2023/02/12 01:58:30;;;;;;;27.33;14.77;;;;;;;2.55;100.00;99207.91;5061475;28;20037;-60
2023/02/12 02:00:59;;;;;;;27.80;14.68;;;;;;;2.65;100.00;99214.00;5056125;28;20068;-56
2023/02/12 02:03:26;;;;;;;29.42;15.52;;;;;;;2.68;100.00;99213.69;5062201;28;20495;-60
2023/02/12 02:06:02;;;;;;;26.55;15.55;;;;;;;2.88;100.00;99208.16;5060268;28;20064;-57
2023/02/12 02:08:29;;;;;;;26.02;14.63;;;;;;;2.83;100.00;99205.09;5065616;28;20040;-57
2023/02/12 02:10:56;;;;;;;25.38;14.85;;;;;;;2.61;100.00;99199.25;5057153;28;20547;-58
2023/02/12 02:16:28;;;;;;;27.20;15.25;;;;;;;2.54;100.00;99206.25;5056938;28;20049;-57
2023/02/12 02:19:01;;;;;;;25.48;15.75;;;;;;;2.60;100.00;99195.75;5059243;28;20072;-58
2023/02/12 02:22:00;;;;;;;28.10;16.05;;;;;;;2.42;100.00;99201.13;5055176;28;20048;-58
2023/02/12 02:24:52;;;;;;;25.73;14.93;;;;;;;2.45;100.00;99192.81;5057853;28;20042;-58
2023/02/12 02:27:29;;;;;;;27.33;15.05;;;;;;;2.50;100.00;99186.97;5057479;28;20068;-58
2023/02/12 02:30:20;;;;;;;26.60;16.10;;;;;;;2.38;100.00;99188.19;5055509;28;20041;-57
2023/02/12 02:33:02;;;;;;;28.10;15.57;;;;;;;2.35;100.00;99186.69;5053065;28;20581;-58
2023/02/12 02:35:43;;;;;;;27.13;15.35;;;;;;;2.28;100.00;99185.63;5053695;28;20068;-55
2023/02/12 02:38:21;;;;;;;28.17;16.50;;;;;;;2.31;100.00;99180.81;5063966;28;20688;-58
2023/02/12 02:40:56;;;;;;;28.17;16.92;;;;;;;2.31;100.00;99185.31;5057731;28;20044;-58
2023/02/12 02:43:29;;;;;;;30.05;16.40;;;;;;;2.30;100.00;99188.97;5058562;28;20446;-56
2023/02/12 02:46:05;;;;;;;33.60;18.58;;;;;;;2.26;100.00;99184.94;5054448;28;20123;-57
2023/02/12 02:48:40;;;;;;;31.13;17.98;;;;;;;2.23;100.00;99180.72;5058683;28;20111;-57
2023/02/12 02:51:13;;;;;;;29.45;17.60;;;;;;;2.23;100.00;99174.53;5059540;28;21791;-56
2023/02/12 02:53:56;;;;;;;31.30;17.95;;;;;;;2.24;100.00;99176.25;5053361;28;20045;-57
2023/02/12 02:56:24;;;;;;;34.03;19.38;;;;;;;2.28;100.00;99174.94;5060044;28;20589;-56
2023/02/12 02:59:02;;;;;;;28.42;16.98;;;;;;;2.29;100.00;99181.97;5058929;28;20060;-58
2023/02/12 03:01:35;;;;;;;35.83;19.58;;;;;;;2.33;100.00;99188.69;5059031;28;20040;-55
2023/02/12 03:04:11;;;;;;;31.65;17.50;;;;;;;2.39;100.00;99182.69;5059822;28;20125;-57
2023/02/12 03:07:00;;;;;;;30.05;17.55;;;;;;;2.38;100.00;99175.69;5058919;28;20051;-58
2023/02/12 03:09:34;;;;;;;34.35;19.42;;;;;;;2.41;100.00;99182.56;5054920;28;20033;-56
2023/02/12 03:12:22;;;;;;;32.47;20.17;;;;;;;2.38;100.00;99180.19;5051864;28;20049;-56
2023/02/12 03:15:23;;;;;;;31.35;18.38;;;;;;;2.40;100.00;99178.22;5058804;28;20715;-56
2023/02/12 03:17:50;;;;;;;30.85;18.38;;;;;;;2.39;100.00;99185.38;5054832;28;20033;-56
2023/02/12 03:20:23;;;;;;;36.92;21.02;;;;;;;2.39;100.00;99174.69;5061381;28;20064;-58
2023/02/12 03:22:57;;;;;;;33.65;18.42;;;;;;;2.41;100.00;99177.22;5054357;28;20047;-56
2023/02/12 03:25:36;;;;;;;31.13;18.63;;;;;;;2.39;100.00;99179.22;5056838;28;20446;-56
2023/02/12 03:28:14;;;;;;;32.97;19.88;;;;;;;2.38;100.00;99185.53;5057684;28;20043;-57
2023/02/12 03:30:44;;;;;;;33.03;19.77;;;;;;;2.36;100.00;99185.69;5055817;28;20557;-56
2023/02/12 03:33:21;;;;;;;32.92;18.88;;;;;;;2.38;100.00;99189.06;5052225;28;20106;-55
2023/02/12 03:36:02;;;;;;;32.00;19.23;;;;;;;2.43;100.00;99196.63;5056086;28;20040;-56
2023/02/12 03:38:37;;;;;;;27.50;16.90;;;;;;;2.44;100.00;99183.06;5052551;28;20120;-58
2023/02/12 03:41:10;;;;;;;27.17;17.48;;;;;;;2.47;100.00;99193.47;5059602;28;20079;-56
2023/02/12 03:43:51;;;;;;;29.85;16.80;;;;;;;2.52;100.00;99185.00;5058903;28;20552;-57
2023/02/12 03:46:32;;;;;;;27.85;17.02;;;;;;;2.44;100.00;99183.06;5060976;28;20088;-55
2023/02/12 03:49:22;;;;;;;31.83;17.93;;;;;;;2.34;100.00;99185.00;5061110;28;20414;-55
2023/02/12 03:51:48;;;;;;;29.23;17.52;;;;;;;2.33;100.00;99186.00;5049266;28;20052;-54
2023/02/12 03:54:18;;;;;;;27.20;15.95;;;;;;;2.35;100.00;99192.03;5059202;28;20052;-58
2023/02/12 03:57:02;;;;;;;31.85;18.10;;;;;;;2.35;100.00;99186.69;5055521;28;20068;-57
2023/02/12 03:59:29;;;;;;;29.67;16.05;;;;;;;2.44;100.00;99188.41;5055019;28;20040;-56
2023/02/12 04:01:57;;;;;;;25.70;16.10;;;;;;;2.39;100.00;99190.72;5053824;28;20044;-57
2023/02/12 04:04:25;;;;;;;32.33;16.67;;;;;;;2.40;100.00;99194.25;5056004;28;20060;-56
2023/02/12 04:06:53;;;;;;;28.73;17.48;;;;;;;2.39;100.00;99198.75;5054163;28;20119;-57
2023/02/12 04:09:21;;;;;;;31.10;18.13;;;;;;;2.42;100.00;99201.13;5063260;28;20041;-57
2023/02/12 04:12:03;;;;;;;29.70;17.80;;;;;;;2.46;100.00;99189.13;5055752;28;20126;-57
2023/02/12 04:14:41;;;;;;;29.80;17.75;;;;;;;2.56;100.00;99190.88;5051985;28;20060;-58
2023/02/12 04:17:37;;;;;;;30.27;18.75;;;;;;;2.56;100.00;99197.06;5055730;28;20048;-58
2023/02/12 04:20:28;;;;;;;30.85;17.35;;;;;;;2.49;100.00;99197.81;5056090;28;20128;-56
2023/02/12 04:22:57;;;;;;;29.10;17.30;;;;;;;2.49;100.00;99198.66;5053241;28;20583;-58
2023/02/12 04:25:43;;;;;;;28.45;16.20;;;;;;;2.51;100.00;99202.00;5052298;28;20116;-57
2023/02/12 04:28:30;;;;;;;29.15;16.30;;;;;;;2.40;100.00;99199.59;5054978;28;20063;-58
2023/02/12 04:31:07;;;;;;;29.05;16.08;;;;;;;2.36;100.00;99206.25;5058292;28;20090;-59
2023/02/12 04:33:43;;;;;;;31.33;17.40;;;;;;;2.28;100.00;99204.34;5053172;28;20543;-55
2023/02/12 04:36:20;;;;;;;29.27;17.25;;;;;;;2.25;100.00;99208.13;5057277;28;20788;-58
2023/02/12 04:38:54;;;;;;;27.42;16.17;;;;;;;2.22;100.00;99211.13;5059804;28;20077;-57
2023/02/12 04:41:21;;;;;;;28.55;17.20;;;;;;;2.18;100.00;99210.56;5056886;28;20048;-58
2023/02/12 04:43:47;;;;;;;31.25;17.52;;;;;;;2.20;100.00;99219.31;5054825;28;20049;-58
2023/02/12 04:46:14;;;;;;;29.48;17.90;;;;;;;2.22;100.00;99216.47;5051855;28;20036;-56
2023/02/12 04:49:01;;;;;;;28.95;17.60;;;;;;;2.23;100.00;99226.16;5052003;28;20993;-58
2023/02/12 04:51:27;;;;;;;32.25;17.30;;;;;;;2.23;100.00;99210.13;5059133;28;20071;-56
2023/02/12 04:53:54;;;;;;;31.98;18.05;;;;;;;2.20;100.00;99211.28;5054319;28;20041;-58
2023/02/12 04:56:20;;;;;;;32.47;17.92;;;;;;;2.21;100.00;99212.97;5056344;28;20098;-58
2023/02/12 04:58:47;;;;;;;31.30;18.27;;;;;;;2.27;100.00;99216.00;5049237;28;20049;-56
2023/02/12 05:01:13;;;;;;;29.55;16.98;;;;;;;2.33;100.00;99212.75;5052730;28;20047;-56
2023/02/12 05:03:40;;;;;;;29.67;16.23;;;;;;;2.34;100.00;99217.09;5054983;28;20044;-58
2023/02/12 05:06:08;;;;;;;25.92;16.70;;;;;;;2.30;100.00;99213.88;5057411;28;20141;-58
2023/02/12 05:08:34;;;;;;;27.67;15.32;;;;;;;2.30;100.00;99223.72;5057748;28;20044;-55
2023/02/12 05:11:06;;;;;;;27.17;16.48;;;;;;;2.34;100.00;99223.28;5056482;28;20573;-56
2023/02/12 05:13:33;;;;;;;29.45;16.67;;;;;;;2.43;100.00;99208.13;5055537;28;20044;-56
2023/02/12 05:16:05;;;;;;;25.33;16.52;;;;;;;2.36;100.00;99208.91;5060575;28;20068;-56
2023/02/12 05:18:32;;;;;;;27.63;16.58;;;;;;;2.38;100.00;99213.13;5058690;28;20042;-57
2023/02/12 05:21:02;;;;;;;29.38;16.23;;;;;;;2.30;100.00;99219.22;5060896;28;20041;-57
2023/02/12 05:23:31;;;;;;;29.00;16.67;;;;;;;2.18;100.00;99221.28;5055164;28;20075;-55
2023/02/12 05:25:59;;;;;;;28.65;16.10;;;;;;;2.26;100.00;99222.34;5056370;28;20110;-56
2023/02/12 05:28:27;;;;;;;25.45;16.08;;;;;;;2.31;100.00;99220.06;5061603;28;20068;-57
2023/02/12 05:30:54;;;;;;;26.73;16.75;;;;;;;2.34;100.00;99219.75;5065806;28;20037;-57
2023/02/12 05:33:20;;;;;;;27.63;15.85;;;;;;;2.32;100.00;99216.41;5058223;28;20045;-56
2023/02/12 05:35:47;;;;;;;25.80;16.00;;;;;;;2.30;100.00;99213.03;5060422;28;20095;-57
2023/02/12 05:38:13;;;;;;;29.48;17.33;;;;;;;2.15;100.00;99212.72;5061631;28;20102;-58
2023/02/12 05:40:41;;;;;;;24.15;14.25;;;;;;;2.20;100.00;99219.31;5063446;28;20044;-57
2023/02/12 05:43:08;;;;;;;27.00;16.65;;;;;;;2.31;100.00;99214.72;5058579;28;20063;-58
2023/02/12 05:45:35;;;;;;;30.00;15.40;;;;;;;2.40;100.00;99215.63;5063139;28;20048;-58
2023/02/12 05:48:01;;;;;;;27.13;16.33;;;;;;;2.48;100.00;99218.38;5056696;28;20651;-58
2023/02/12 05:50:28;;;;;;;27.10;15.85;;;;;;;2.51;100.00;99217.22;5057390;28;20060;-58
2023/02/12 05:53:00;;;;;;;25.35;15.48;;;;;;;2.37;100.00;99219.47;5054131;28;20057;-58
2023/02/12 05:55:26;;;;;;;29.45;15.35;;;;;;;2.19;100.00;99217.63;5061923;28;20072;-58
2023/02/12 05:57:53;;;;;;;27.38;16.02;;;;;;;2.09;100.00;99224.84;5058211;28;20044;-57
2023/02/12 06:00:20;;;;;;;28.67;16.00;;;;;;;2.03;100.00;99220.94;5062015;28;20112;-58
2023/02/12 06:02:47;;;;;;;32.58;17.95;;;;;;;2.08;100.00;99224.03;5059607;28;20043;-58
2023/02/12 06:05:13;;;;;;;25.50;15.30;;;;;;;2.13;100.00;99220.88;5057820;28;20517;-57
2023/02/12 06:07:40;;;;;;;27.60;16.73;;;;;;;2.17;100.00;99219.59;5058089;28;20105;-58
2023/02/12 06:10:07;;;;;;;31.13;16.30;;;;;;;2.21;100.00;99212.97;5056295;28;20090;-58
2023/02/12 06:12:33;;;;;;;27.55;16.30;;;;;;;2.17;100.00;99211.56;5050528;28;20108;-54
2023/02/12 06:15:00;;;;;;;30.60;17.00;;;;;;;2.25;100.00;99215.34;5060685;28;20120;-57
2023/02/12 06:17:26;;;;;;;29.17;16.05;;;;;;;2.26;100.00;99211.66;5062819;28;20045;-58
2023/02/12 06:19:53;;;;;;;24.95;15.40;;;;;;;2.07;100.00;99208.97;5057785;28;20411;-57
2023/02/12 06:22:19;;;;;;;28.70;16.05;;;;;;;1.97;100.00;99212.69;5057298;28;20682;-58
2023/02/12 06:24:45;;;;;;;25.30;14.90;;;;;;;2.00;100.00;99215.06;5056260;28;20646;-59
2023/02/12 06:27:12;;;;;;;28.50;15.75;;;;;;;2.05;100.00;99215.47;5056808;28;20036;-57
2023/02/12 06:29:38;;;;;;;29.65;16.63;;;;;;;2.11;100.00;99220.22;5058644;28;20037;-58
2023/02/12 06:32:07;;;;;;;28.73;16.30;;;;;;;2.18;100.00;99223.94;5059741;28;20037;-58
2023/02/12 06:34:33;;;;;;;30.08;16.65;;;;;;;2.26;100.00;99230.38;5057136;28;20048;-58
2023/02/12 06:37:00;;;;;;;26.20;16.20;;;;;;;2.21;100.00;99231.66;5057585;28;20045;-57
2023/02/12 06:39:26;;;;;;;26.55;15.63;;;;;;;2.25;100.00;99232.19;5057537;28;20041;-56
2023/02/12 06:41:53;;;;;;;26.77;16.30;;;;;;;2.27;100.00;99232.91;5054267;28;20094;-58
2023/02/12 06:44:19;;;;;;;30.50;16.40;;;;;;;2.24;100.00;99243.88;5063189;28;20076;-57
2023/02/12 06:46:46;;;;;;;24.45;14.45;;;;;;;2.26;100.00;99235.72;5058595;28;20047;-57
2023/02/12 06:49:13;;;;;;;27.60;16.52;;;;;;;2.31;100.00;99236.94;5058090;28;20036;-58
2023/02/12 06:51:40;;;;;;;25.10;15.60;;;;;;;2.40;100.00;99237.03;5060104;28;20063;-58
2023/02/12 06:54:12;;;;;;;25.45;16.05;;;;;;;2.45;100.00;99243.59;5054141;28;20080;-59
2023/02/12 06:56:39;;;;;;;24.40;14.68;;;;;;;2.45;100.00;99243.59;5053877;28;20040;-59
2023/02/12 06:59:05;;;;;;;25.85;16.30;;;;;;;2.49;100.00;99251.28;5054714;28;20730;-59
2023/02/12 07:01:32;;;;;;;26.90;14.63;;;;;;;2.50;100.00;99255.69;5050467;28;20748;-57
2023/02/12 07:04:02;;;;;;;25.08;15.68;;;;;;;2.50;100.00;99259.16;5053835;28;20067;-59
2023/02/12 07:06:30;;;;;;;30.83;16.77;;;;;;;2.51;100.00;99257.34;5056126;28;20499;-59
2023/02/12 07:08:57;;;;;;;25.30;16.30;;;;;;;2.58;100.00;99258.44;5055403;28;20657;-59
2023/02/12 07:11:29;;;;;;;29.77;16.55;;;;;;;2.67;100.00;99251.28;5056519;28;20040;-59
2023/02/12 07:13:55;;;;;;;25.90;15.60;;;;;;;2.63;100.00;99250.78;5058471;28;20071;-57
2023/02/12 07:16:23;;;;;;;25.42;15.48;;;;;;;2.53;100.00;99255.34;5048780;28;20098;-59
2023/02/12 07:18:49;;;;;;;24.98;13.93;;;;;;;2.55;100.00;99256.06;5055112;28;20123;-58
2023/02/12 07:21:17;;;;;;;25.80;15.40;;;;;;;2.55;100.00;99261.41;5057983;28;20119;-59
2023/02/12 07:23:48;;;;;;;28.10;16.65;;;;;;;2.53;100.00;99260.69;5049382;28;20048;-56
2023/02/12 07:26:18;;;;;;;31.75;16.67;;;;;;;2.52;100.00;99262.53;5056951;28;20044;-57
2023/02/12 07:28:45;;;;;;;29.92;16.25;;;;;;;2.54;100.00;99263.22;5059941;28;20392;-58
2023/02/12 07:31:19;;;;;;;28.50;16.08;;;;;;;2.57;100.00;99264.75;5053857;28;20043;-58
2023/02/12 07:33:47;;;;;;;28.83;17.13;;;;;;;2.64;100.00;99260.47;5051043;28;20056;-57
2023/02/12 07:36:16;;;;;;;26.75;16.70;;;;;;;2.72;100.00;99259.69;5056766;28;20044;-58
2023/02/12 07:38:43;;;;;;;25.02;16.90;;;;;;;2.83;100.00;99255.94;5061037;28;20484;-58
2023/02/12 07:41:16;;;;;;;28.50;17.13;;;;;;;2.85;100.00;99253.97;5055562;28;20040;-58
2023/02/12 07:43:44;;;;;;;30.38;16.15;;;;;;;2.98;100.00;99251.72;5058556;28;20123;-57
2023/02/12 07:46:18;;;;;;;31.40;18.80;;;;;;;3.18;100.00;99254.19;5058627;28;20079;-57
2023/02/12 07:48:45;;;;;;;34.65;18.48;;;;;;;3.28;100.00;99254.06;5055526;28;20150;-58
2023/02/12 07:51:14;;;;;;;30.10;19.50;;;;;;;3.36;100.00;99251.44;5055979;28;20044;-56
2023/02/12 07:53:41;;;;;;;35.28;22.17;;;;;;;3.46;100.00;99247.84;5057147;28;20067;-56
2023/02/12 07:56:14;;;;;;;37.78;22.65;;;;;;;3.51;100.00;99242.84;5051963;28;20068;-57
2023/02/12 07:58:45;;;;;;;36.63;22.77;;;;;;;3.55;100.00;99246.88;5055229;28;20688;-55
2023/02/12 08:01:21;;;;;;;40.15;23.35;;;;;;;3.61;100.00;99253.44;5055439;28;20040;-56
2023/02/12 08:03:49;;;;;;;40.88;23.50;;;;;;;3.71;100.00;99255.97;5051716;28;20049;-57
2023/02/12 08:06:25;;;;;;;40.45;24.30;;;;;;;3.84;100.00;99250.16;5052052;28;20063;-57
2023/02/12 08:08:53;;;;;;;40.33;24.30;;;;;;;3.93;100.00;99243.84;5054709;28;20112;-56
2023/02/12 08:11:20;;;;;;;48.83;27.17;;;;;;;3.98;100.00;99244.19;5057851;28;20107;-57
2023/02/12 08:13:46;;;;;;;45.50;25.95;;;;;;;4.10;100.00;99249.25;5056971;28;20131;-58
2023/02/12 08:16:18;;;;;;;46.45;26.67;;;;;;;4.20;100.00;99241.88;5060179;28;20043;-57
2023/02/12 08:18:46;;;;;;;39.78;24.20;;;;;;;4.27;100.00;99240.22;5061097;28;20511;-59
2023/02/12 08:21:16;;;;;;;44.88;24.67;;;;;;;4.31;100.00;99239.91;5057494;28;20079;-58
2023/02/12 08:23:43;;;;;;;39.55;24.40;;;;;;;4.34;100.00;99237.72;5060724;28;20041;-59
2023/02/12 08:26:13;;;;;;;38.80;23.25;;;;;;;4.32;100.00;99239.75;5049838;28;20068;-57
2023/02/12 08:28:45;;;;;;;40.88;23.90;;;;;;;4.37;100.00;99236.56;5057030;28;20043;-58
2023/02/12 08:31:15;;;;;;;40.47;23.95;;;;;;;4.47;100.00;99247.13;5059001;28;20083;-59
2023/02/12 08:33:43;;;;;;;42.65;24.05;;;;;;;4.60;100.00;99238.63;5055254;28;20676;-58
2023/02/12 08:36:13;;;;;;;44.38;25.95;;;;;;;4.40;100.00;99242.44;5054827;28;20068;-58
2023/02/12 08:38:40;;;;;;;44.42;24.27;;;;;;;4.46;100.00;99246.28;5051587;28;20051;-64
2023/02/12 08:41:10;;;;;;;39.70;24.35;;;;;;;4.48;100.00;99252.34;5057466;28;20040;-63
2023/02/12 08:43:39;;;;;;;43.03;25.35;;;;;;;4.47;100.00;99253.34;5057563;28;20067;-63
2023/02/12 08:46:11;;;;;;;43.35;25.30;;;;;;;4.55;100.00;99253.38;5054537;28;20051;-63
2023/02/12 08:48:39;;;;;;;40.38;23.63;;;;;;;4.61;100.00;99251.84;5053439;28;20087;-63
2023/02/12 08:51:10;;;;;;;41.13;24.98;;;;;;;4.69;99.58;99259.06;5055782;28;20051;-59
2023/02/12 08:53:38;;;;;;;40.10;23.77;;;;;;;4.69;99.73;99251.84;5056527;28;20128;-59
2023/02/12 08:56:05;;;;;;;42.95;25.20;;;;;;;4.76;99.24;99256.56;5060756;28;20044;-56
2023/02/12 08:58:33;;;;;;;44.92;25.15;;;;;;;4.76;99.02;99257.38;5058952;28;20491;-56
2023/02/12 09:01:00;;;;;;;44.70;24.25;;;;;;;4.83;98.82;99254.84;5064059;28;20041;-57
2023/02/12 09:03:27;;;;;;;40.22;24.10;;;;;;;4.73;99.16;99251.50;5060836;28;20042;-58
2023/02/12 09:05:53;;;;;;;45.17;25.13;;;;;;;4.65;98.75;99253.19;5057863;28;20112;-57
2023/02/12 09:08:20;;;;;;;41.67;24.75;;;;;;;4.72;98.82;99264.09;5058322;28;20044;-56
2023/02/12 09:10:47;;;;;;;45.97;29.33;;;;;;;4.73;98.77;99262.25;5061263;28;20068;-59
2023/02/12 09:13:14;;;;;;;44.55;26.20;;;;;;;4.79;98.32;99259.72;5062228;28;20123;-58
2023/02/12 09:15:43;;;;;;;45.13;26.42;;;;;;;4.88;98.17;99263.28;5064888;28;20066;-58
2023/02/12 09:18:12;;;;;;;45.60;26.15;;;;;;;4.95;97.59;99272.31;5059627;28;20052;-57
2023/02/12 09:20:41;;;;;;;42.67;27.02;;;;;;;4.95;97.42;99263.44;5062864;28;20045;-58
2023/02/12 09:23:12;;;;;;;40.60;25.35;;;;;;;4.81;97.81;99267.63;5058967;28;20095;-58
2023/02/12 09:25:41;;;;;;;45.63;27.60;;;;;;;4.69;98.83;99265.25;5063340;28;20190;-57
2023/02/12 09:28:09;;;;;;;45.20;28.88;;;;;;;4.70;99.17;99274.16;5059791;28;20055;-57
2023/02/12 09:30:37;;;;;;;45.30;27.58;;;;;;;4.73;98.81;99259.56;5062569;28;20040;-56
2023/02/12 09:33:05;;;;;;;55.08;31.85;;;;;;;4.65;99.30;99268.47;5057792;28;20079;-58
2023/02/12 09:35:35;;;;;;;52.03;28.08;;;;;;;4.72;99.21;99274.00;5062450;28;20502;-59
2023/02/12 09:38:03;;;;;;;50.67;28.60;;;;;;;4.84;98.51;99275.34;5062790;28;20076;-57
2023/02/12 09:40:38;;;;;;;48.15;27.17;;;;;;;4.92;97.96;99274.50;5062369;28;20119;-59
2023/02/12 09:43:17;;;;;;;46.90;25.83;;;;;;;5.10;96.48;99270.78;5060488;28;20060;-58
2023/02/12 09:46:23;;;;;;;49.08;25.80;;;;;;;5.23;95.85;99273.78;5065204;28;20102;-59
2023/02/12 09:49:08;;;;;;;41.60;25.15;;;;;;;5.27;95.16;99271.63;5056664;28;20419;-58
2023/02/12 09:51:40;;;;;;;43.53;24.85;;;;;;;5.38;94.57;99276.63;5065044;28;20068;-57
2023/02/12 09:54:16;;;;;;;36.92;20.42;;;;;;;5.44;93.69;99280.47;5057303;28;20049;-59
2023/02/12 09:56:51;;;;;;;39.25;22.90;;;;;;;5.49;93.01;99275.41;5059951;28;20044;-58
2023/02/12 09:59:32;;;;;;;44.15;25.58;;;;;;;5.40;94.19;99281.81;5062462;28;20594;-59
2023/02/12 10:01:59;;;;;;;48.97;26.90;;;;;;;5.39;93.85;99280.16;5057652;28;20036;-57
2023/02/12 10:04:27;;;;;;;42.03;25.75;;;;;;;5.47;93.37;99269.41;5061812;28;20076;-59
2023/02/12 10:07:19;;;;;;;32.28;21.55;;;;;;;5.63;92.52;99270.38;5058023;28;20135;-59
2023/02/12 10:09:56;;;;;;;34.70;22.20;;;;;;;5.76;92.51;99270.66;5046427;28;20160;-57
2023/02/12 10:12:33;;;;;;;33.45;21.52;;;;;;;5.79;92.53;99262.22;5059280;28;20037;-58
2023/02/12 10:15:14;;;;;;;38.70;21.95;;;;;;;5.75;92.70;99265.44;5060140;28;20048;-58
2023/02/12 10:17:47;;;;;;;33.20;20.27;;;;;;;5.77;92.41;99261.56;5059906;28;20037;-58
2023/02/12 10:20:25;;;;;;;28.23;17.33;;;;;;;5.93;91.37;99257.97;5061810;28;20710;-58
2023/02/12 10:23:04;;;;;;;31.15;17.00;;;;;;;5.91;92.15;99259.16;5060274;28;20044;-59
2023/02/12 10:25:48;;;;;;;26.58;15.50;;;;;;;5.86;93.20;99267.75;5060296;28;20102;-59
2023/02/12 10:28:25;;;;;;;23.52;13.65;;;;;;;5.81;92.69;99257.53;5059837;28;20076;-59
2023/02/12 10:30:56;;;;;;;16.60;9.05;;;;;;;6.06;91.84;99259.28;5060107;28;20525;-59
2023/02/12 10:33:32;;;;;;;12.98;7.90;;;;;;;6.14;91.77;99259.25;5060642;28;20048;-59
2023/02/12 10:36:15;;;;;;;15.88;8.23;;;;;;;6.18;91.78;99259.72;5060221;28;20072;-59
2023/02/12 10:38:48;;;;;;;13.38;8.07;;;;;;;6.35;90.02;99253.22;5059040;28;20095;-59
2023/02/12 10:41:15;;;;;;;16.20;8.65;;;;;;;6.40;89.83;99257.25;5055177;28;20133;-59
2023/02/12 10:43:42;;;;;;;16.58;8.70;;;;;;;6.11;90.37;99255.06;5058780;28;20040;-59
2023/02/12 10:46:14;;;;;;;18.15;9.60;;;;;;;6.15;90.45;99260.91;5060271;28;20519;-59
2023/02/12 10:48:45;;;;;;;12.70;6.97;;;;;;;6.03;91.29;99252.41;5054680;28;20118;-59
2023/02/12 10:51:34;;;;;;;15.60;9.50;;;;;;;6.08;91.45;99255.41;5060761;28;20037;-59
2023/02/12 10:54:29;;;;;;;11.55;5.82;;;;;;;5.97;90.57;99253.91;5058358;28;20114;-57
2023/02/12 10:56:56;;;;;;;14.20;10.15;;;;;;;6.17;90.52;99264.28;5048594;28;20106;-59
2023/02/12 10:59:23;;;;;;;10.10;6.60;;;;;;;6.21;89.77;99262.94;5059679;28;20504;-59
2023/02/12 11:01:50;;;;;;;13.68;7.15;;;;;;;6.15;89.84;99250.16;5058307;28;20051;-60
2023/02/12 11:04:22;;;;;;;12.40;7.28;;;;;;;6.27;89.28;99247.94;5061786;28;20462;-59
2023/02/12 11:06:56;;;;;;;13.75;8.32;;;;;;;6.30;89.88;99244.88;5056707;28;20072;-59
2023/02/12 11:09:50;;;;;;;13.07;8.10;;;;;;;6.30;89.55;99238.66;5057735;28;20097;-59
2023/02/12 11:12:34;;;;;;;16.10;9.15;;;;;;;6.28;89.74;99244.22;5057671;28;20128;-59
2023/02/12 11:15:14;;;;;;;15.50;8.70;;;;;;;6.27;89.57;99247.09;5054834;28;20439;-59
2023/02/12 11:17:55;;;;;;;15.07;7.90;;;;;;;6.19;90.09;99239.91;5061781;28;20032;-59
2023/02/12 11:20:26;;;;;;;14.85;8.27;;;;;;;6.33;89.11;99239.13;5055753;28;20046;-58
2023/02/12 11:22:54;;;;;;;;;;;;;;;6.58;88.41;99240.81;5058416;28;20175;-59
2023/02/12 11:25:24;;;;;;;16.85;10.23;;;;;;;6.58;87.64;99232.75;5058972;28;19920;-59
2023/02/12 11:28:17;;;;;;;14.30;8.02;;;;;;;6.70;86.99;99236.69;5058658;28;20090;-59
2023/02/12 11:31:01;;;;;;;24.70;14.68;;;;;;;6.54;87.94;99232.28;5049988;28;20041;-59
2023/02/12 11:33:34;;;;;;;16.85;9.02;;;;;;;6.60;88.26;99241.50;5060107;28;20036;-58
2023/02/12 11:36:10;;;;;;;17.02;9.10;;;;;;;6.64;87.58;99235.53;5058292;28;20048;-58
2023/02/12 11:38:46;;;;;;;18.77;11.55;;;;;;;6.50;88.43;99231.78;5053648;28;20185;-56
2023/02/12 11:41:28;;;;;;;18.73;11.00;;;;;;;6.32;89.60;99229.41;5060882;28;20033;-59
2023/02/12 11:43:55;;;;;;;16.33;9.77;;;;;;;6.45;88.52;99228.78;5061326;28;20108;-57